Diretta Meteo Pula Aerodrome, Croaziasabato 20 luglio ore 15:30

Mappa
Sereno 30 °C Sereno 24 Ore: T.min 15 T.max 30
Ponente Sud Km/h 9.3 Punto di rugiada: 13 °C Umidità: 35% Visibilità: 10 Km
Il sole sorge alle: 05:32 Il sole tramonta alle: 20:49
20 Luglio 2019 15:30 tempo osservato: Sereno Sereno 30 35 1018 vento: Nord S 9.3
20 Luglio 2019 15:00 tempo osservato: Sereno Sereno 30 40 1018 vento: Nord S 11.1
20 Luglio 2019 14:30 tempo osservato: Sereno Sereno 30 40 1018 vento: Nord S/SO 13
20 Luglio 2019 14:00 tempo osservato: Sereno Sereno 30 42 1018 vento: Nord S 9.3
20 Luglio 2019 13:30 tempo osservato: Sereno Sereno 29 45 1018 vento: Nord N 9.3
20 Luglio 2019 13:00 tempo osservato: Sereno Sereno 29 45 1018 vento: Nord S 9.3
20 Luglio 2019 12:30 tempo osservato: Sereno Sereno 29 48 1018 vento: Nord S/SO 11.1
20 Luglio 2019 12:00 tempo osservato: Sereno Sereno 29 39 1018 vento: Nord N 9.3
20 Luglio 2019 11:30 tempo osservato: Sereno Sereno 29 42 1018 vento: Nord S 9.3
20 Luglio 2019 11:00 tempo osservato: Sereno Sereno 28 42 1018 vento: Nord SE 9.3
20 Luglio 2019 10:30 tempo osservato: Sereno Sereno 27 47 1018 vento: Nord SE 9.3
20 Luglio 2019 10:00 tempo osservato: Sereno Sereno 27 47 1018 vento: Nord SE 9.3
20 Luglio 2019 09:30 tempo osservato: Sereno Sereno 27 47 1018 vento: Nord SE 9.3
20 Luglio 2019 09:00 tempo osservato: Sereno Sereno 26 50 1018 vento: Nord E/SE 7.4
20 Luglio 2019 08:30 tempo osservato: Sereno Sereno 26 50 1017 vento: Nord N 5.5
20 Luglio 2019 08:00 tempo osservato: Sereno Sereno 24 60 1017 vento: Nord N 3.7
20 Luglio 2019 07:30 tempo osservato: Sereno Sereno 23 64 1017 vento: Nord N 0
20 Luglio 2019 07:00 tempo osservato: Sereno Sereno 20 68 1017 vento: Nord N 5.5
20 Luglio 2019 06:30 tempo osservato: Sereno Sereno 17 77 1017 vento: Nord N 5.5
20 Luglio 2019 06:00 tempo osservato: Sereno Sereno 16 72 1017 vento: Nord E 9.3
20 Luglio 2019 05:30 tempo osservato: Sereno Sereno 16 77 1017 vento: Nord E/NE 7.4
20 Luglio 2019 05:00 tempo osservato: Sereno Sereno 17 67 1017 vento: Nord E/NE 7.4
20 Luglio 2019 04:30 tempo osservato: Sereno Sereno 16 72 1017 vento: Nord N 3.7
20 Luglio 2019 04:00 tempo osservato: Sereno Sereno 19 55 1017 vento: Nord E/NE 7.4
20 Luglio 2019 03:30 tempo osservato: Sereno Sereno 18 63 1017 vento: Nord E/NE 7.4
20 Luglio 2019 03:00 tempo osservato: Sereno Sereno 17 67 1017 vento: Nord E/NE 7.4
20 Luglio 2019 02:30 tempo osservato: Sereno Sereno 15 76 1017 vento: Nord E 7.4
20 Luglio 2019 02:00 tempo osservato: Sereno Sereno 17 67 1017 vento: Nord E/NE 7.4
20 Luglio 2019 01:30 tempo osservato: Sereno Sereno 18 63 1017 vento: Nord E/NE 7.4
20 Luglio 2019 01:00 tempo osservato: Sereno Sereno 18 59 1017 vento: Nord E 7.4
20 Luglio 2019 00:30 tempo osservato: Sereno Sereno 19 59 1017 vento: Nord E/NE 7.4
20 Luglio 2019 00:00 tempo osservato: Sereno Sereno 18 63 1017 vento: Nord E/NE 7.4
19 Luglio 2019 23:00 tempo osservato: Sereno Sereno 19 72 1017 vento: Nord N 5.5
19 Luglio 2019 22:30 tempo osservato: Sereno Sereno 19 72 1016 vento: Nord N 5.5
19 Luglio 2019 22:00 tempo osservato: Sereno Sereno 18 82 1016 vento: Nord N 5.5
19 Luglio 2019 21:30 tempo osservato: Sereno Sereno 20 72 1016 vento: Nord N 5.5
19 Luglio 2019 21:00 tempo osservato: Sereno Sereno 22 68 1016 vento: Nord N 1.8
19 Luglio 2019 20:30 tempo osservato: Sereno Sereno 24 57 1015 vento: Nord N 5.5
19 Luglio 2019 20:00 tempo osservato: Sereno Sereno 26 47 1015 vento: Nord O 7.4
19 Luglio 2019 19:30 tempo osservato: Sereno Sereno 27 44 1015 vento: Nord O 9.3
19 Luglio 2019 19:00 tempo osservato: Sereno Sereno 28 42 1015 vento: Nord O 9.3
19 Luglio 2019 18:30 tempo osservato: Sereno Sereno 28 42 1015 vento: Nord O 9.3
19 Luglio 2019 18:00 tempo osservato: Sereno Sereno 28 39 1015 vento: Nord O/NO 11.1
19 Luglio 2019 17:30 tempo osservato: Sereno Sereno 29 39 1015 vento: Nord O 13
19 Luglio 2019 17:00 tempo osservato: Sereno Sereno 29 39 1015 vento: Nord O/SO 13